createdAt,value
2022-11-27T00:03:01.166Z,-3.71
2022-11-27T00:08:03.333Z,-3.64
2022-11-27T00:13:05.369Z,-3.58
2022-11-27T00:18:07.493Z,-3.53
2022-11-27T00:23:09.561Z,-3.54
2022-11-27T00:28:11.505Z,-3.55
2022-11-27T00:33:13.506Z,-3.68
2022-11-27T00:38:16.524Z,-3.53
2022-11-27T00:43:18.651Z,-3.50
2022-11-27T00:48:20.726Z,-3.53
2022-11-27T00:53:22.857Z,-3.52
2022-11-27T00:58:25.883Z,-3.52
2022-11-27T01:03:28.926Z,-3.51
2022-11-27T01:08:31.374Z,-3.58
2022-11-27T01:13:36.051Z,-3.54
2022-11-27T01:18:39.971Z,-3.54
2022-11-27T01:23:42.175Z,-3.62
2022-11-27T01:28:44.736Z,-3.59
2022-11-27T01:33:47.561Z,-3.72
2022-11-27T01:38:49.771Z,-3.73
2022-11-27T01:43:58.970Z,-3.54
2022-11-27T01:49:09.820Z,-3.48
2022-11-27T01:54:13.119Z,-3.66
2022-11-27T01:59:17.595Z,-3.50
2022-11-27T02:04:19.740Z,-3.53
2022-11-27T02:09:21.961Z,-3.45
2022-11-27T02:14:24.028Z,-3.40
2022-11-27T02:20:19.981Z,-3.33
2022-11-27T02:25:28.311Z,-3.41
2022-11-27T02:30:36.133Z,-3.39
2022-11-27T02:35:52.426Z,-3.35
2022-11-27T02:41:00.674Z,-3.32
2022-11-27T02:46:05.222Z,-3.47
2022-11-27T02:51:09.606Z,-3.31
2022-11-27T02:56:18.896Z,-3.25
2022-11-27T03:01:23.791Z,-3.27
2022-11-27T03:06:31.386Z,-3.23
2022-11-27T03:11:34.003Z,-3.40
2022-11-27T03:16:46.193Z,-3.16
2022-11-27T03:21:54.144Z,-3.12
2022-11-27T03:26:58.574Z,-3.12
2022-11-27T03:32:01.416Z,-3.15
2022-11-27T03:37:04.577Z,-3.14
2022-11-27T03:42:26.048Z,-3.04
2022-11-27T03:47:33.839Z,-3.13
2022-11-27T03:53:09.657Z,-2.98
2022-11-27T03:58:30.765Z,-2.98
2022-11-27T04:03:32.907Z,-3.07
2022-11-27T04:08:35.213Z,-3.10
2022-11-27T04:13:37.273Z,-3.12
2022-11-27T04:18:39.281Z,-3.13
2022-11-27T04:23:41.346Z,-2.98
2022-11-27T04:28:43.314Z,-2.94
2022-11-27T04:33:45.316Z,-2.89
2022-11-27T04:38:47.322Z,-2.87
2022-11-27T04:43:49.321Z,-2.82
2022-11-27T04:48:51.367Z,-2.83
2022-11-27T04:53:53.401Z,-2.78
2022-11-27T04:58:55.431Z,-2.77
2022-11-27T05:03:57.463Z,-2.71
2022-11-27T05:09:02.570Z,-2.71
2022-11-27T05:14:18.042Z,-2.66
2022-11-27T05:19:22.108Z,-2.62
2022-11-27T05:24:26.284Z,-2.72
2022-11-27T05:29:28.436Z,-2.84
2022-11-27T05:34:30.516Z,-2.64
2022-11-27T05:39:32.489Z,-2.78
2022-11-27T05:44:34.511Z,-2.67
2022-11-27T05:49:36.811Z,-2.66
2022-11-27T05:54:39.186Z,-2.57
2022-11-27T05:59:41.356Z,-2.53
2022-11-27T06:04:43.315Z,-2.42
2022-11-27T06:09:45.399Z,-2.38
2022-11-27T06:14:47.380Z,-2.26
2022-11-27T06:19:51.615Z,-2.21
2022-11-27T06:24:53.683Z,-2.18
2022-11-27T06:29:55.723Z,-2.12
2022-11-27T06:34:57.815Z,-2.03
2022-11-27T06:39:59.904Z,-2.03
2022-11-27T06:45:01.982Z,-1.85
2022-11-27T06:50:05.898Z,-1.78
2022-11-27T06:55:08.317Z,-1.70
2022-11-27T07:00:10.822Z,-1.80
2022-11-27T07:05:12.829Z,-1.61
2022-11-27T07:10:14.880Z,-1.48
2022-11-27T07:15:16.950Z,-1.42
2022-11-27T07:20:19.028Z,-1.43
2022-11-27T07:25:21.177Z,-1.24
2022-11-27T07:30:23.158Z,-1.17
2022-11-27T07:35:25.158Z,-1.17
2022-11-27T07:40:27.273Z,-0.93
2022-11-27T07:45:29.407Z,-0.95
2022-11-27T07:50:31.562Z,-0.88
2022-11-27T07:55:33.601Z,-0.83
2022-11-27T08:00:36.216Z,-0.77
2022-11-27T08:05:38.729Z,-0.89
2022-11-27T08:10:41.299Z,-0.86
2022-11-27T08:15:43.530Z,-0.70
2022-11-27T08:20:45.659Z,-0.58
2022-11-27T08:25:47.737Z,-0.59
2022-11-27T08:30:57.785Z,-0.53
2022-11-27T08:36:00.041Z,-0.72
2022-11-27T08:41:04.420Z,-0.66
2022-11-27T08:46:07.755Z,-0.48
2022-11-27T08:51:15.934Z,-0.18
2022-11-27T08:56:20.914Z,-0.09
2022-11-27T09:01:28.940Z,0.07
2022-11-27T09:06:36.398Z,0.13
2022-11-27T09:11:38.663Z,0.17
2022-11-27T09:16:40.752Z,0.23
2022-11-27T09:21:42.947Z,0.10
2022-11-27T09:26:44.980Z,0.22
2022-11-27T09:31:47.196Z,0.22
2022-11-27T09:36:50.667Z,0.18
2022-11-27T09:41:59.268Z,0.30
2022-11-27T09:47:16.470Z,0.21
2022-11-27T09:52:28.641Z,0.27
2022-11-27T09:57:37.642Z,0.24
2022-11-27T10:02:43.362Z,0.36
2022-11-27T10:08:27.426Z,0.69
2022-11-27T10:13:41.684Z,0.85
2022-11-27T10:18:48.567Z,0.78
2022-11-27T10:24:13.139Z,0.73
2022-11-27T10:29:33.868Z,0.60
2022-11-27T10:34:44.122Z,0.48
2022-11-27T10:39:54.227Z,0.37
2022-11-27T10:45:04.692Z,0.38
2022-11-27T10:50:17.841Z,0.30
2022-11-27T10:55:28.892Z,0.58
2022-11-27T11:00:30.978Z,0.13
2022-11-27T11:11:02.232Z,0.21
2022-11-27T11:16:14.645Z,0.09
2022-11-27T11:21:23.377Z,-0.12
2022-11-27T11:26:38.352Z,0.04
2022-11-27T11:31:41.335Z,-0.07
2022-11-27T11:36:58.809Z,-0.05
2022-11-27T11:42:01.217Z,-0.14
2022-11-27T11:47:03.528Z,-0.29
2022-11-27T11:52:36.162Z,-0.37
2022-11-27T11:57:57.030Z,-0.54
2022-11-27T12:03:24.305Z,-0.57
2022-11-27T12:08:29.181Z,-0.57
2022-11-27T12:14:11.428Z,-0.49
2022-11-27T12:19:22.222Z,-0.65
2022-11-27T12:25:02.577Z,-0.61
2022-11-27T12:30:19.829Z,-0.77
2022-11-27T12:35:29.337Z,-0.80
2022-11-27T12:41:03.500Z,-0.83
2022-11-27T12:46:19.076Z,-1.00
2022-11-27T12:51:24.818Z,-1.12
2022-11-27T12:56:38.061Z,-1.15
2022-11-27T13:01:46.044Z,-1.15
2022-11-27T13:07:23.402Z,-1.08
2022-11-27T13:12:37.226Z,-1.10
2022-11-27T13:17:44.467Z,-1.33
2022-11-27T13:22:48.370Z,-1.27
2022-11-27T13:27:53.077Z,-1.30
2022-11-27T13:32:58.819Z,-1.32
2022-11-27T13:38:14.721Z,-1.29
2022-11-27T13:43:44.383Z,-1.30
2022-11-27T13:48:57.689Z,-1.41
2022-11-27T13:54:12.218Z,-1.33
2022-11-27T13:59:25.111Z,-1.30
2022-11-27T14:04:32.035Z,-1.32
2022-11-27T14:09:50.115Z,-1.42
2022-11-27T14:15:04.083Z,-1.25
2022-11-27T14:20:10.133Z,-1.31
2022-11-27T14:25:27.876Z,-1.29
2022-11-27T14:30:45.031Z,-1.34
2022-11-27T14:35:58.454Z,-1.35
2022-11-27T14:41:15.533Z,-1.31
2022-11-27T14:46:20.746Z,-1.39
2022-11-27T14:51:36.317Z,-1.54
2022-11-27T14:56:42.326Z,-1.43
2022-11-27T15:01:46.826Z,-1.54
2022-11-27T15:06:48.994Z,-1.47
2022-11-27T15:12:21.667Z,-1.37
2022-11-27T15:17:28.384Z,-1.43
2022-11-27T15:22:33.467Z,-1.49
2022-11-27T15:27:47.036Z,-1.62
2022-11-27T15:32:51.777Z,-1.52
2022-11-27T15:38:04.509Z,-1.67
2022-11-27T15:43:14.476Z,-1.62
2022-11-27T15:48:19.624Z,-1.54
2022-11-27T15:53:21.803Z,-1.56
2022-11-27T15:58:24.325Z,-1.52
2022-11-27T16:03:27.006Z,-1.74
2022-11-27T16:08:29.026Z,-1.64
2022-11-27T16:13:31.502Z,-1.64
2022-11-27T16:18:34.683Z,-1.71
2022-11-27T16:23:38.561Z,-1.68
2022-11-27T16:28:41.377Z,-1.82
2022-11-27T16:33:44.119Z,-1.70
2022-11-27T16:38:49.088Z,-1.72
2022-11-27T16:43:56.295Z,-1.67
2022-11-27T16:49:00.944Z,-1.68
2022-11-27T16:54:08.610Z,-1.78
2022-11-27T16:59:13.905Z,-1.78
2022-11-27T17:04:19.743Z,-1.75
2022-11-27T17:09:26.992Z,-1.79
2022-11-27T17:14:29.433Z,-1.92
2022-11-27T17:19:32.084Z,-1.80
2022-11-27T17:24:35.932Z,-1.90
2022-11-27T17:29:42.233Z,-1.91
2022-11-27T17:34:45.516Z,-1.98
2022-11-27T17:39:48.569Z,-1.96
2022-11-27T17:44:51.912Z,-2.09
2022-11-27T17:49:54.116Z,-2.06
2022-11-27T17:54:56.631Z,-2.22
2022-11-27T17:59:58.982Z,-2.11
2022-11-27T18:05:01.220Z,-2.18
2022-11-27T18:10:05.393Z,-2.15
2022-11-27T18:15:09.694Z,-2.30
2022-11-27T18:20:12.424Z,-2.15
2022-11-27T18:25:14.507Z,-2.16
2022-11-27T18:30:17.009Z,-2.03
2022-11-27T18:35:19.588Z,-2.09
2022-11-27T18:40:21.705Z,-2.07
2022-11-27T18:45:32.795Z,-2.18
2022-11-27T18:50:36.606Z,-1.98
2022-11-27T18:55:38.902Z,-1.95
2022-11-27T19:00:41.282Z,-1.98
2022-11-27T19:05:47.310Z,-2.03
2022-11-27T19:10:49.800Z,-1.99
2022-11-27T19:15:52.171Z,-2.01
2022-11-27T19:20:55.853Z,-2.08
2022-11-27T19:25:58.417Z,-1.93
2022-11-27T19:31:04.855Z,-1.87
2022-11-27T19:36:10.619Z,-1.86
2022-11-27T19:41:18.210Z,-1.90
2022-11-27T19:46:26.709Z,-1.88
2022-11-27T19:51:33.353Z,-2.01
2022-11-27T19:56:37.550Z,-2.02
2022-11-27T20:01:40.631Z,-2.02
2022-11-27T20:06:42.954Z,-2.01
2022-11-27T20:11:45.301Z,-1.96
2022-11-27T20:16:47.597Z,-1.98
2022-11-27T20:21:49.923Z,-1.98
2022-11-27T20:26:53.206Z,-2.04
2022-11-27T20:31:56.109Z,-1.94
2022-11-27T20:36:58.220Z,-1.98
2022-11-27T20:42:00.371Z,-2.06
2022-11-27T20:47:02.783Z,-2.01
2022-11-27T20:52:06.033Z,-2.06
2022-11-27T20:57:14.205Z,-1.96
2022-11-27T21:02:16.434Z,-1.90
2022-11-27T21:07:19.523Z,-1.95
2022-11-27T21:12:21.616Z,-1.79
2022-11-27T21:17:24.582Z,-1.93
2022-11-27T21:22:26.967Z,-1.83
2022-11-27T21:27:29.614Z,-1.73
2022-11-27T21:32:31.695Z,-1.89
2022-11-27T21:37:35.423Z,-1.96
2022-11-27T21:42:42.989Z,-1.95
2022-11-27T21:47:46.603Z,-2.15
2022-11-27T21:52:48.943Z,-1.99
2022-11-27T21:57:50.983Z,-2.07
2022-11-27T22:02:53.179Z,-2.05
2022-11-27T22:07:55.476Z,-2.08
2022-11-27T22:12:57.670Z,-2.03
2022-11-27T22:17:59.637Z,-2.00
2022-11-27T22:23:01.703Z,-2.05
2022-11-27T22:28:03.996Z,-2.09
2022-11-27T22:33:06.333Z,-2.03
2022-11-27T22:38:08.570Z,-2.16
2022-11-27T22:43:10.598Z,-2.20
2022-11-27T22:48:12.855Z,-2.04
2022-11-27T22:53:15.473Z,-1.97
2022-11-27T22:58:17.633Z,-1.93
2022-11-27T23:03:19.806Z,-2.14
2022-11-27T23:08:22.347Z,-2.10
2022-11-27T23:13:24.421Z,-2.00
2022-11-27T23:18:26.487Z,-2.03
2022-11-27T23:23:28.576Z,-2.08
2022-11-27T23:28:30.764Z,-2.00
2022-11-27T23:33:33.281Z,-2.03
2022-11-27T23:38:35.509Z,-2.19
2022-11-27T23:43:37.755Z,-2.03
2022-11-27T23:48:39.817Z,-2.06
2022-11-27T23:53:42.031Z,-1.95
2022-11-27T23:58:47.415Z,-2.08
